sensor_id;sensor_type;location;lat;lon;timestamp;temperature;humidity
2729;DHT22;1372;47.956;7.830;2022-10-23T00:02:09;12.50;99.90
2729;DHT22;1372;47.956;7.830;2022-10-23T00:04:40;12.50;99.90
2729;DHT22;1372;47.956;7.830;2022-10-23T00:07:12;12.40;99.90
2729;DHT22;1372;47.956;7.830;2022-10-23T00:09:44;12.40;99.90
2729;DHT22;1372;47.956;7.830;2022-10-23T00:12:12;12.40;99.90
2729;DHT22;1372;47.956;7.830;2022-10-23T00:14:41;12.40;99.90
2729;DHT22;1372;47.956;7.830;2022-10-23T00:17:10;12.40;99.90
2729;DHT22;1372;47.956;7.830;2022-10-23T00:19:40;12.40;99.90
2729;DHT22;1372;47.956;7.830;2022-10-23T00:22:09;12.50;99.90
2729;DHT22;1372;47.956;7.830;2022-10-23T00:24:41;12.40;99.90
2729;DHT22;1372;47.956;7.830;2022-10-23T00:27:09;12.40;99.90
2729;DHT22;1372;47.956;7.830;2022-10-23T00:29:38;12.40;99.90
2729;DHT22;1372;47.956;7.830;2022-10-23T00:32:06;12.40;99.90
2729;DHT22;1372;47.956;7.830;2022-10-23T00:34:37;12.40;99.90
2729;DHT22;1372;47.956;7.830;2022-10-23T00:37:10;12.40;99.90
2729;DHT22;1372;47.956;7.830;2022-10-23T00:39:39;12.30;99.90
2729;DHT22;1372;47.956;7.830;2022-10-23T00:42:09;12.30;99.90
2729;DHT22;1372;47.956;7.830;2022-10-23T00:45:17;12.30;99.90
2729;DHT22;1372;47.956;7.830;2022-10-23T00:47:49;12.30;99.90
2729;DHT22;1372;47.956;7.830;2022-10-23T00:50:20;12.40;99.90
2729;DHT22;1372;47.956;7.830;2022-10-23T00:52:53;12.30;99.90
2729;DHT22;1372;47.956;7.830;2022-10-23T00:55:24;12.30;99.90
2729;DHT22;1372;47.956;7.830;2022-10-23T00:57:54;12.20;99.90
2729;DHT22;1372;47.956;7.830;2022-10-23T01:00:40;12.30;99.90
2729;DHT22;1372;47.956;7.830;2022-10-23T01:03:25;12.30;99.90
2729;DHT22;1372;47.956;7.830;2022-10-23T01:06:03;12.30;99.90
2729;DHT22;1372;47.956;7.830;2022-10-23T01:08:42;12.40;99.90
2729;DHT22;1372;47.956;7.830;2022-10-23T01:11:23;12.30;99.90
2729;DHT22;1372;47.956;7.830;2022-10-23T01:14:02;12.30;99.90
2729;DHT22;1372;47.956;7.830;2022-10-23T01:16:42;12.20;99.90
2729;DHT22;1372;47.956;7.830;2022-10-23T01:19:20;12.30;99.90
2729;DHT22;1372;47.956;7.830;2022-10-23T01:21:54;12.30;99.90
2729;DHT22;1372;47.956;7.830;2022-10-23T01:24:45;12.30;99.90
2729;DHT22;1372;47.956;7.830;2022-10-23T01:27:23;12.30;99.90
2729;DHT22;1372;47.956;7.830;2022-10-23T01:30:04;12.40;99.90
2729;DHT22;1372;47.956;7.830;2022-10-23T01:32:38;12.30;99.90
2729;DHT22;1372;47.956;7.830;2022-10-23T01:35:13;12.30;99.90
2729;DHT22;1372;47.956;7.830;2022-10-23T01:37:45;12.20;99.90
2729;DHT22;1372;47.956;7.830;2022-10-23T01:40:21;12.20;99.90
2729;DHT22;1372;47.956;7.830;2022-10-23T01:42:55;12.20;99.90
2729;DHT22;1372;47.956;7.830;2022-10-23T01:45:29;12.20;99.90
2729;DHT22;1372;47.956;7.830;2022-10-23T01:48:02;12.20;99.90
2729;DHT22;1372;47.956;7.830;2022-10-23T01:50:34;12.10;99.90
2729;DHT22;1372;47.956;7.830;2022-10-23T01:53:04;12.20;99.90
2729;DHT22;1372;47.956;7.830;2022-10-23T01:55:32;12.10;99.90
2729;DHT22;1372;47.956;7.830;2022-10-23T01:58:03;12.10;99.90
2729;DHT22;1372;47.956;7.830;2022-10-23T02:00:35;12.10;99.90
2729;DHT22;1372;47.956;7.830;2022-10-23T02:03:07;12.00;99.90
2729;DHT22;1372;47.956;7.830;2022-10-23T02:05:36;12.10;99.90
2729;DHT22;1372;47.956;7.830;2022-10-23T02:08:06;12.00;99.90
2729;DHT22;1372;47.956;7.830;2022-10-23T02:10:40;12.10;99.90
2729;DHT22;1372;47.956;7.830;2022-10-23T02:13:19;12.10;99.90
2729;DHT22;1372;47.956;7.830;2022-10-23T02:15:59;12.20;99.90
2729;DHT22;1372;47.956;7.830;2022-10-23T02:18:37;12.20;99.90
2729;DHT22;1372;47.956;7.830;2022-10-23T02:21:12;12.20;99.90
2729;DHT22;1372;47.956;7.830;2022-10-23T02:23:48;12.10;99.90
2729;DHT22;1372;47.956;7.830;2022-10-23T02:26:24;12.10;99.90
2729;DHT22;1372;47.956;7.830;2022-10-23T02:29:05;12.00;99.90
2729;DHT22;1372;47.956;7.830;2022-10-23T02:31:36;11.90;99.90
2729;DHT22;1372;47.956;7.830;2022-10-23T02:34:05;11.90;99.90
2729;DHT22;1372;47.956;7.830;2022-10-23T02:36:34;12.00;99.90
2729;DHT22;1372;47.956;7.830;2022-10-23T02:39:05;12.00;99.90
2729;DHT22;1372;47.956;7.830;2022-10-23T02:41:40;11.90;99.90
2729;DHT22;1372;47.956;7.830;2022-10-23T02:44:24;12.00;99.90
2729;DHT22;1372;47.956;7.830;2022-10-23T02:47:04;11.90;99.90
2729;DHT22;1372;47.956;7.830;2022-10-23T02:49:44;11.90;99.90
2729;DHT22;1372;47.956;7.830;2022-10-23T02:52:23;11.90;99.90
2729;DHT22;1372;47.956;7.830;2022-10-23T02:55:04;12.00;99.90
2729;DHT22;1372;47.956;7.830;2022-10-23T02:57:43;11.90;99.90
2729;DHT22;1372;47.956;7.830;2022-10-23T03:00:18;11.90;99.90
2729;DHT22;1372;47.956;7.830;2022-10-23T03:02:53;11.90;99.90
2729;DHT22;1372;47.956;7.830;2022-10-23T03:05:27;11.80;99.90
2729;DHT22;1372;47.956;7.830;2022-10-23T03:07:57;11.90;99.90
2729;DHT22;1372;47.956;7.830;2022-10-23T03:10:26;11.70;99.90
2729;DHT22;1372;47.956;7.830;2022-10-23T03:12:55;11.70;99.90
2729;DHT22;1372;47.956;7.830;2022-10-23T03:15:25;11.60;99.90
2729;DHT22;1372;47.956;7.830;2022-10-23T03:17:57;11.70;99.90
2729;DHT22;1372;47.956;7.830;2022-10-23T03:20:25;11.70;99.90
2729;DHT22;1372;47.956;7.830;2022-10-23T03:22:54;11.80;99.90
2729;DHT22;1372;47.956;7.830;2022-10-23T03:25:22;11.70;99.90
2729;DHT22;1372;47.956;7.830;2022-10-23T03:27:53;11.70;99.90
2729;DHT22;1372;47.956;7.830;2022-10-23T03:30:21;11.60;99.90
2729;DHT22;1372;47.956;7.830;2022-10-23T03:32:51;11.50;99.90
2729;DHT22;1372;47.956;7.830;2022-10-23T03:35:22;11.50;99.90
2729;DHT22;1372;47.956;7.830;2022-10-23T03:37:50;11.60;99.90
2729;DHT22;1372;47.956;7.830;2022-10-23T03:40:23;11.50;99.90
2729;DHT22;1372;47.956;7.830;2022-10-23T03:42:52;11.60;99.90
2729;DHT22;1372;47.956;7.830;2022-10-23T03:45:20;11.50;99.90
2729;DHT22;1372;47.956;7.830;2022-10-23T03:47:50;11.60;99.90
2729;DHT22;1372;47.956;7.830;2022-10-23T03:50:19;11.50;99.90
2729;DHT22;1372;47.956;7.830;2022-10-23T03:52:48;11.40;99.90
2729;DHT22;1372;47.956;7.830;2022-10-23T03:55:19;11.50;99.90
2729;DHT22;1372;47.956;7.830;2022-10-23T03:57:47;11.60;99.90
2729;DHT22;1372;47.956;7.830;2022-10-23T04:00:16;11.50;99.90
2729;DHT22;1372;47.956;7.830;2022-10-23T04:02:45;11.50;99.90
2729;DHT22;1372;47.956;7.830;2022-10-23T04:05:16;11.50;99.90
2729;DHT22;1372;47.956;7.830;2022-10-23T04:07:44;11.40;99.90
2729;DHT22;1372;47.956;7.830;2022-10-23T04:10:13;11.50;99.90
2729;DHT22;1372;47.956;7.830;2022-10-23T04:12:45;11.50;99.90
2729;DHT22;1372;47.956;7.830;2022-10-23T04:15:14;11.50;99.90
2729;DHT22;1372;47.956;7.830;2022-10-23T04:17:45;11.50;99.90
2729;DHT22;1372;47.956;7.830;2022-10-23T04:20:17;11.40;99.90
2729;DHT22;1372;47.956;7.830;2022-10-23T04:22:50;11.40;99.90
2729;DHT22;1372;47.956;7.830;2022-10-23T04:25:19;11.30;99.90
2729;DHT22;1372;47.956;7.830;2022-10-23T04:27:47;11.40;99.90
2729;DHT22;1372;47.956;7.830;2022-10-23T04:30:16;11.40;99.90
2729;DHT22;1372;47.956;7.830;2022-10-23T04:32:44;11.40;99.90
2729;DHT22;1372;47.956;7.830;2022-10-23T04:35:13;11.40;99.90
2729;DHT22;1372;47.956;7.830;2022-10-23T04:37:48;11.40;99.90
2729;DHT22;1372;47.956;7.830;2022-10-23T04:40:16;11.40;99.90
2729;DHT22;1372;47.956;7.830;2022-10-23T04:42:47;11.40;99.90
2729;DHT22;1372;47.956;7.830;2022-10-23T04:45:20;11.30;99.90
2729;DHT22;1372;47.956;7.830;2022-10-23T04:47:48;11.30;99.90
2729;DHT22;1372;47.956;7.830;2022-10-23T04:50:21;11.50;99.90
2729;DHT22;1372;47.956;7.830;2022-10-23T04:52:54;11.40;99.90
2729;DHT22;1372;47.956;7.830;2022-10-23T04:55:26;11.20;99.90
2729;DHT22;1372;47.956;7.830;2022-10-23T04:57:55;11.20;99.90
2729;DHT22;1372;47.956;7.830;2022-10-23T05:00:23;11.20;99.90
2729;DHT22;1372;47.956;7.830;2022-10-23T05:02:52;11.30;99.90
2729;DHT22;1372;47.956;7.830;2022-10-23T05:05:20;11.30;99.90
2729;DHT22;1372;47.956;7.830;2022-10-23T05:07:49;11.20;99.90
2729;DHT22;1372;47.956;7.830;2022-10-23T05:10:22;11.30;99.90
2729;DHT22;1372;47.956;7.830;2022-10-23T05:12:51;11.50;99.90
2729;DHT22;1372;47.956;7.830;2022-10-23T05:15:19;11.60;99.90
2729;DHT22;1372;47.956;7.830;2022-10-23T05:17:50;11.50;99.90
2729;DHT22;1372;47.956;7.830;2022-10-23T05:20:24;11.50;99.90
2729;DHT22;1372;47.956;7.830;2022-10-23T05:22:57;11.60;99.90
2729;DHT22;1372;47.956;7.830;2022-10-23T05:25:32;11.60;99.90
2729;DHT22;1372;47.956;7.830;2022-10-23T05:28:01;11.50;99.90
2729;DHT22;1372;47.956;7.830;2022-10-23T05:30:32;11.50;99.90
2729;DHT22;1372;47.956;7.830;2022-10-23T05:33:03;11.50;99.90
2729;DHT22;1372;47.956;7.830;2022-10-23T05:35:32;11.60;99.90
2729;DHT22;1372;47.956;7.830;2022-10-23T05:38:03;11.70;99.90
2729;DHT22;1372;47.956;7.830;2022-10-23T05:40:35;11.80;99.90
2729;DHT22;1372;47.956;7.830;2022-10-23T05:43:03;11.90;99.90
2729;DHT22;1372;47.956;7.830;2022-10-23T05:45:33;11.90;99.90
2729;DHT22;1372;47.956;7.830;2022-10-23T05:48:06;11.90;99.90
2729;DHT22;1372;47.956;7.830;2022-10-23T05:50:51;12.00;99.90
2729;DHT22;1372;47.956;7.830;2022-10-23T05:53:20;12.00;99.90
2729;DHT22;1372;47.956;7.830;2022-10-23T05:55:49;11.90;99.90
2729;DHT22;1372;47.956;7.830;2022-10-23T05:58:18;11.80;99.90
2729;DHT22;1372;47.956;7.830;2022-10-23T06:00:47;11.70;99.90
2729;DHT22;1372;47.956;7.830;2022-10-23T06:03:18;11.80;99.90
2729;DHT22;1372;47.956;7.830;2022-10-23T06:05:48;11.90;99.90
2729;DHT22;1372;47.956;7.830;2022-10-23T06:08:22;11.70;99.90
2729;DHT22;1372;47.956;7.830;2022-10-23T06:10:52;11.80;99.90
2729;DHT22;1372;47.956;7.830;2022-10-23T06:13:21;11.70;99.90
2729;DHT22;1372;47.956;7.830;2022-10-23T06:15:49;11.80;99.90
2729;DHT22;1372;47.956;7.830;2022-10-23T06:18:22;11.70;99.90
2729;DHT22;1372;47.956;7.830;2022-10-23T06:20:59;11.60;99.90
2729;DHT22;1372;47.956;7.830;2022-10-23T06:23:29;11.60;99.90
2729;DHT22;1372;47.956;7.830;2022-10-23T06:26:03;11.70;99.90
2729;DHT22;1372;47.956;7.830;2022-10-23T06:28:33;11.80;99.90
2729;DHT22;1372;47.956;7.830;2022-10-23T06:31:11;11.90;99.90
2729;DHT22;1372;47.956;7.830;2022-10-23T06:33:41;11.90;99.90
2729;DHT22;1372;47.956;7.830;2022-10-23T06:36:11;11.80;99.90
2729;DHT22;1372;47.956;7.830;2022-10-23T06:38:40;11.80;99.90
2729;DHT22;1372;47.956;7.830;2022-10-23T06:41:14;11.80;99.90
2729;DHT22;1372;47.956;7.830;2022-10-23T06:43:50;11.90;99.90
2729;DHT22;1372;47.956;7.830;2022-10-23T06:46:20;11.90;99.90
2729;DHT22;1372;47.956;7.830;2022-10-23T06:48:51;11.90;99.90
2729;DHT22;1372;47.956;7.830;2022-10-23T06:51:20;11.90;99.90
2729;DHT22;1372;47.956;7.830;2022-10-23T06:53:49;11.90;99.90
2729;DHT22;1372;47.956;7.830;2022-10-23T06:56:19;11.80;99.90
2729;DHT22;1372;47.956;7.830;2022-10-23T06:58:48;11.80;99.90
2729;DHT22;1372;47.956;7.830;2022-10-23T07:01:17;11.80;99.90
2729;DHT22;1372;47.956;7.830;2022-10-23T07:03:47;11.90;99.90
2729;DHT22;1372;47.956;7.830;2022-10-23T07:06:16;12.00;99.90
2729;DHT22;1372;47.956;7.830;2022-10-23T07:08:45;12.00;99.90
2729;DHT22;1372;47.956;7.830;2022-10-23T07:11:16;11.90;99.90
2729;DHT22;1372;47.956;7.830;2022-10-23T07:13:46;11.90;99.90
2729;DHT22;1372;47.956;7.830;2022-10-23T07:16:17;12.00;99.90
2729;DHT22;1372;47.956;7.830;2022-10-23T07:18:48;12.10;99.90
2729;DHT22;1372;47.956;7.830;2022-10-23T07:21:25;12.10;99.90
2729;DHT22;1372;47.956;7.830;2022-10-23T07:23:57;12.20;99.90
2729;DHT22;1372;47.956;7.830;2022-10-23T07:26:26;12.40;99.90
2729;DHT22;1372;47.956;7.830;2022-10-23T07:28:58;12.40;99.90
2729;DHT22;1372;47.956;7.830;2022-10-23T07:31:27;12.50;99.90
2729;DHT22;1372;47.956;7.830;2022-10-23T07:33:56;12.40;99.90
2729;DHT22;1372;47.956;7.830;2022-10-23T07:36:27;12.40;99.90
2729;DHT22;1372;47.956;7.830;2022-10-23T07:38:59;12.40;99.90
2729;DHT22;1372;47.956;7.830;2022-10-23T07:41:27;12.40;99.90
2729;DHT22;1372;47.956;7.830;2022-10-23T07:43:56;12.40;99.90
2729;DHT22;1372;47.956;7.830;2022-10-23T07:46:26;12.40;99.90
2729;DHT22;1372;47.956;7.830;2022-10-23T07:48:55;12.50;99.90
2729;DHT22;1372;47.956;7.830;2022-10-23T07:51:25;12.60;99.90
2729;DHT22;1372;47.956;7.830;2022-10-23T07:53:55;12.70;99.90
2729;DHT22;1372;47.956;7.830;2022-10-23T07:56:26;12.70;99.90
2729;DHT22;1372;47.956;7.830;2022-10-23T07:58:56;12.80;99.90
2729;DHT22;1372;47.956;7.830;2022-10-23T08:01:29;13.00;99.90
2729;DHT22;1372;47.956;7.830;2022-10-23T08:03:59;13.10;99.90
2729;DHT22;1372;47.956;7.830;2022-10-23T08:06:28;13.20;99.90
2729;DHT22;1372;47.956;7.830;2022-10-23T08:08:58;13.30;99.90
2729;DHT22;1372;47.956;7.830;2022-10-23T08:11:31;13.30;99.90
2729;DHT22;1372;47.956;7.830;2022-10-23T08:14:02;13.50;99.90
2729;DHT22;1372;47.956;7.830;2022-10-23T08:16:37;13.50;99.90
2729;DHT22;1372;47.956;7.830;2022-10-23T08:19:06;13.60;99.90
2729;DHT22;1372;47.956;7.830;2022-10-23T08:21:35;13.70;99.90
2729;DHT22;1372;47.956;7.830;2022-10-23T08:24:04;13.70;99.90
2729;DHT22;1372;47.956;7.830;2022-10-23T08:26:33;13.80;99.90
2729;DHT22;1372;47.956;7.830;2022-10-23T08:29:02;13.90;99.90
2729;DHT22;1372;47.956;7.830;2022-10-23T08:31:30;14.00;99.90
2729;DHT22;1372;47.956;7.830;2022-10-23T08:34:00;14.10;99.90
2729;DHT22;1372;47.956;7.830;2022-10-23T08:36:32;14.20;99.90
2729;DHT22;1372;47.956;7.830;2022-10-23T08:39:02;14.30;99.90
2729;DHT22;1372;47.956;7.830;2022-10-23T08:41:34;14.30;99.90
2729;DHT22;1372;47.956;7.830;2022-10-23T08:44:11;14.40;99.90
2729;DHT22;1372;47.956;7.830;2022-10-23T08:46:45;14.50;99.90
2729;DHT22;1372;47.956;7.830;2022-10-23T08:49:25;14.60;99.90
2729;DHT22;1372;47.956;7.830;2022-10-23T08:52:11;14.70;99.90
2729;DHT22;1372;47.956;7.830;2022-10-23T08:54:53;14.70;99.90
2729;DHT22;1372;47.956;7.830;2022-10-23T08:57:26;14.80;99.90
2729;DHT22;1372;47.956;7.830;2022-10-23T09:00:11;14.90;99.90
2729;DHT22;1372;47.956;7.830;2022-10-23T09:02:42;15.00;99.90
2729;DHT22;1372;47.956;7.830;2022-10-23T09:05:20;15.00;99.90
2729;DHT22;1372;47.956;7.830;2022-10-23T09:08:12;15.10;99.90
2729;DHT22;1372;47.956;7.830;2022-10-23T09:11:03;15.10;99.90
2729;DHT22;1372;47.956;7.830;2022-10-23T09:13:57;15.20;99.90
2729;DHT22;1372;47.956;7.830;2022-10-23T09:16:45;15.20;99.90
2729;DHT22;1372;47.956;7.830;2022-10-23T09:19:28;15.30;99.90
2729;DHT22;1372;47.956;7.830;2022-10-23T09:22:39;15.30;99.90
2729;DHT22;1372;47.956;7.830;2022-10-23T09:25:10;15.40;99.90
2729;DHT22;1372;47.956;7.830;2022-10-23T09:27:46;15.40;99.90
2729;DHT22;1372;47.956;7.830;2022-10-23T09:30:28;15.40;99.90
2729;DHT22;1372;47.956;7.830;2022-10-23T09:32:59;15.40;99.90
2729;DHT22;1372;47.956;7.830;2022-10-23T09:35:31;15.50;99.90
2729;DHT22;1372;47.956;7.830;2022-10-23T09:38:00;15.60;99.90
2729;DHT22;1372;47.956;7.830;2022-10-23T09:40:35;15.60;99.90
2729;DHT22;1372;47.956;7.830;2022-10-23T09:43:14;15.60;99.90
2729;DHT22;1372;47.956;7.830;2022-10-23T09:45:54;15.70;99.90
2729;DHT22;1372;47.956;7.830;2022-10-23T09:48:24;15.80;99.90
2729;DHT22;1372;47.956;7.830;2022-10-23T09:50:54;15.80;99.90
2729;DHT22;1372;47.956;7.830;2022-10-23T09:53:33;15.80;99.90
2729;DHT22;1372;47.956;7.830;2022-10-23T09:56:12;15.90;99.90
2729;DHT22;1372;47.956;7.830;2022-10-23T09:58:53;16.00;99.90
2729;DHT22;1372;47.956;7.830;2022-10-23T10:01:28;16.00;99.90
2729;DHT22;1372;47.956;7.830;2022-10-23T10:04:02;16.10;99.90
2729;DHT22;1372;47.956;7.830;2022-10-23T10:06:33;16.20;99.90
2729;DHT22;1372;47.956;7.830;2022-10-23T10:09:09;16.20;99.90
2729;DHT22;1372;47.956;7.830;2022-10-23T10:11:46;16.20;99.90
2729;DHT22;1372;47.956;7.830;2022-10-23T10:14:38;16.20;99.90
2729;DHT22;1372;47.956;7.830;2022-10-23T10:17:18;16.30;99.90
2729;DHT22;1372;47.956;7.830;2022-10-23T10:20:03;16.30;99.90
2729;DHT22;1372;47.956;7.830;2022-10-23T10:22:43;16.40;99.90
2729;DHT22;1372;47.956;7.830;2022-10-23T10:25:24;16.40;99.90
2729;DHT22;1372;47.956;7.830;2022-10-23T10:28:14;16.50;99.90
2729;DHT22;1372;47.956;7.830;2022-10-23T10:31:02;16.50;99.90
2729;DHT22;1372;47.956;7.830;2022-10-23T10:33:51;16.70;99.90
2729;DHT22;1372;47.956;7.830;2022-10-23T10:36:40;16.70;99.90
2729;DHT22;1372;47.956;7.830;2022-10-23T10:39:26;16.80;99.90
2729;DHT22;1372;47.956;7.830;2022-10-23T10:42:19;16.80;99.90
2729;DHT22;1372;47.956;7.830;2022-10-23T10:45:06;16.90;99.90
2729;DHT22;1372;47.956;7.830;2022-10-23T10:47:50;17.00;99.90
2729;DHT22;1372;47.956;7.830;2022-10-23T10:50:30;17.00;99.90
2729;DHT22;1372;47.956;7.830;2022-10-23T10:53:17;17.00;99.90
2729;DHT22;1372;47.956;7.830;2022-10-23T10:55:52;17.10;99.90
2729;DHT22;1372;47.956;7.830;2022-10-23T10:58:33;17.10;99.90
2729;DHT22;1372;47.956;7.830;2022-10-23T11:01:12;17.30;99.90
2729;DHT22;1372;47.956;7.830;2022-10-23T11:03:48;17.40;99.90
2729;DHT22;1372;47.956;7.830;2022-10-23T11:06:23;17.50;99.90
2729;DHT22;1372;47.956;7.830;2022-10-23T11:08:59;17.50;99.90
2729;DHT22;1372;47.956;7.830;2022-10-23T11:11:46;17.60;99.90
2729;DHT22;1372;47.956;7.830;2022-10-23T11:14:20;17.60;99.90
2729;DHT22;1372;47.956;7.830;2022-10-23T11:16:50;17.60;99.90
2729;DHT22;1372;47.956;7.830;2022-10-23T11:19:23;17.60;99.90
2729;DHT22;1372;47.956;7.830;2022-10-23T11:22:00;17.70;99.90
2729;DHT22;1372;47.956;7.830;2022-10-23T11:24:55;17.70;99.90
2729;DHT22;1372;47.956;7.830;2022-10-23T11:27:59;17.80;99.90
2729;DHT22;1372;47.956;7.830;2022-10-23T11:30:47;17.90;99.90
2729;DHT22;1372;47.956;7.830;2022-10-23T11:33:44;17.90;99.90
2729;DHT22;1372;47.956;7.830;2022-10-23T11:36:41;18.00;99.90
2729;DHT22;1372;47.956;7.830;2022-10-23T11:39:24;18.10;99.90
2729;DHT22;1372;47.956;7.830;2022-10-23T11:41:56;18.20;99.90
2729;DHT22;1372;47.956;7.830;2022-10-23T11:44:43;18.30;99.90
2729;DHT22;1372;47.956;7.830;2022-10-23T11:47:32;18.30;99.90
2729;DHT22;1372;47.956;7.830;2022-10-23T11:50:25;18.50;99.90
2729;DHT22;1372;47.956;7.830;2022-10-23T11:52:59;18.60;99.90
2729;DHT22;1372;47.956;7.830;2022-10-23T11:55:55;18.60;99.90
2729;DHT22;1372;47.956;7.830;2022-10-23T11:58:26;18.60;99.90
2729;DHT22;1372;47.956;7.830;2022-10-23T12:01:01;18.70;99.90
2729;DHT22;1372;47.956;7.830;2022-10-23T12:03:40;18.70;99.90
2729;DHT22;1372;47.956;7.830;2022-10-23T12:06:22;18.70;99.90
2729;DHT22;1372;47.956;7.830;2022-10-23T12:08:58;18.80;99.90
2729;DHT22;1372;47.956;7.830;2022-10-23T12:11:40;18.80;99.90
2729;DHT22;1372;47.956;7.830;2022-10-23T12:14:31;18.80;99.90
2729;DHT22;1372;47.956;7.830;2022-10-23T12:17:14;18.80;99.90
2729;DHT22;1372;47.956;7.830;2022-10-23T12:19:54;18.80;99.90
2729;DHT22;1372;47.956;7.830;2022-10-23T12:22:27;18.90;99.90
2729;DHT22;1372;47.956;7.830;2022-10-23T12:25:07;18.90;99.90
2729;DHT22;1372;47.956;7.830;2022-10-23T12:27:44;18.90;99.90
2729;DHT22;1372;47.956;7.830;2022-10-23T12:30:21;18.80;99.90
2729;DHT22;1372;47.956;7.830;2022-10-23T12:33:10;18.80;99.90
2729;DHT22;1372;47.956;7.830;2022-10-23T12:36:05;18.80;99.90
2729;DHT22;1372;47.956;7.830;2022-10-23T12:38:43;18.90;99.90
2729;DHT22;1372;47.956;7.830;2022-10-23T12:41:18;19.00;99.90
2729;DHT22;1372;47.956;7.830;2022-10-23T12:43:52;19.00;99.90
2729;DHT22;1372;47.956;7.830;2022-10-23T12:46:32;19.00;99.90
2729;DHT22;1372;47.956;7.830;2022-10-23T12:49:10;19.00;99.90
2729;DHT22;1372;47.956;7.830;2022-10-23T12:51:44;19.10;99.90
2729;DHT22;1372;47.956;7.830;2022-10-23T12:54:25;19.10;99.90
2729;DHT22;1372;47.956;7.830;2022-10-23T12:56:58;19.10;99.90
2729;DHT22;1372;47.956;7.830;2022-10-23T12:59:35;19.10;99.90
2729;DHT22;1372;47.956;7.830;2022-10-23T13:02:16;19.10;99.90
2729;DHT22;1372;47.956;7.830;2022-10-23T13:04:52;19.20;99.90
2729;DHT22;1372;47.956;7.830;2022-10-23T13:07:26;19.30;99.90
2729;DHT22;1372;47.956;7.830;2022-10-23T13:09:57;19.30;99.90
2729;DHT22;1372;47.956;7.830;2022-10-23T13:12:28;19.40;99.90
2729;DHT22;1372;47.956;7.830;2022-10-23T13:15:14;19.30;99.90
2729;DHT22;1372;47.956;7.830;2022-10-23T13:17:45;19.30;99.90
2729;DHT22;1372;47.956;7.830;2022-10-23T13:20:20;19.20;99.90
2729;DHT22;1372;47.956;7.830;2022-10-23T13:22:57;19.40;99.90
2729;DHT22;1372;47.956;7.830;2022-10-23T13:25:29;19.40;99.90
2729;DHT22;1372;47.956;7.830;2022-10-23T13:28:12;19.40;99.90
2729;DHT22;1372;47.956;7.830;2022-10-23T13:31:05;19.40;99.90
2729;DHT22;1372;47.956;7.830;2022-10-23T13:33:37;19.40;99.90
2729;DHT22;1372;47.956;7.830;2022-10-23T13:36:20;19.50;99.90
2729;DHT22;1372;47.956;7.830;2022-10-23T13:39:02;19.50;99.90
2729;DHT22;1372;47.956;7.830;2022-10-23T13:41:36;19.50;99.90
2729;DHT22;1372;47.956;7.830;2022-10-23T13:44:10;19.50;99.90
2729;DHT22;1372;47.956;7.830;2022-10-23T13:46:40;19.50;99.90
2729;DHT22;1372;47.956;7.830;2022-10-23T13:49:13;19.60;99.90
2729;DHT22;1372;47.956;7.830;2022-10-23T13:51:44;19.60;99.90
2729;DHT22;1372;47.956;7.830;2022-10-23T13:54:22;19.70;99.90
2729;DHT22;1372;47.956;7.830;2022-10-23T13:56:57;19.80;99.90
2729;DHT22;1372;47.956;7.830;2022-10-23T13:59:25;19.90;99.90
2729;DHT22;1372;47.956;7.830;2022-10-23T14:01:54;19.90;99.90
2729;DHT22;1372;47.956;7.830;2022-10-23T14:04:25;19.90;99.90
2729;DHT22;1372;47.956;7.830;2022-10-23T14:06:56;19.90;99.90
2729;DHT22;1372;47.956;7.830;2022-10-23T14:09:29;20.00;99.90
2729;DHT22;1372;47.956;7.830;2022-10-23T14:11:57;20.10;99.90
2729;DHT22;1372;47.956;7.830;2022-10-23T14:14:31;20.10;99.90
2729;DHT22;1372;47.956;7.830;2022-10-23T14:17:00;20.20;99.90
2729;DHT22;1372;47.956;7.830;2022-10-23T14:19:29;20.30;99.90
2729;DHT22;1372;47.956;7.830;2022-10-23T14:21:57;20.30;99.90
2729;DHT22;1372;47.956;7.830;2022-10-23T14:24:27;20.30;99.90
2729;DHT22;1372;47.956;7.830;2022-10-23T14:26:56;20.40;99.90
2729;DHT22;1372;47.956;7.830;2022-10-23T14:29:25;20.30;99.90
2729;DHT22;1372;47.956;7.830;2022-10-23T14:31:54;20.40;99.90
2729;DHT22;1372;47.956;7.830;2022-10-23T14:34:22;20.30;99.90
2729;DHT22;1372;47.956;7.830;2022-10-23T14:36:54;20.30;99.90
2729;DHT22;1372;47.956;7.830;2022-10-23T14:39:35;20.30;99.90
2729;DHT22;1372;47.956;7.830;2022-10-23T14:42:04;20.30;99.90
2729;DHT22;1372;47.956;7.830;2022-10-23T14:44:35;20.10;99.90
2729;DHT22;1372;47.956;7.830;2022-10-23T14:47:09;20.10;99.90
2729;DHT22;1372;47.956;7.830;2022-10-23T14:49:39;20.10;99.90
2729;DHT22;1372;47.956;7.830;2022-10-23T14:52:10;20.10;99.90
2729;DHT22;1372;47.956;7.830;2022-10-23T14:54:40;20.10;99.90
2729;DHT22;1372;47.956;7.830;2022-10-23T14:57:09;20.30;99.90
2729;DHT22;1372;47.956;7.830;2022-10-23T14:59:38;20.10;99.90
2729;DHT22;1372;47.956;7.830;2022-10-23T15:02:09;20.00;99.90
2729;DHT22;1372;47.956;7.830;2022-10-23T15:04:40;20.00;99.90
2729;DHT22;1372;47.956;7.830;2022-10-23T15:07:12;20.00;99.90
2729;DHT22;1372;47.956;7.830;2022-10-23T15:09:42;19.90;99.90
2729;DHT22;1372;47.956;7.830;2022-10-23T15:12:11;19.80;99.90
2729;DHT22;1372;47.956;7.830;2022-10-23T15:14:50;19.70;99.90
2729;DHT22;1372;47.956;7.830;2022-10-23T15:17:24;19.60;99.90
2729;DHT22;1372;47.956;7.830;2022-10-23T15:19:53;19.50;99.90
2729;DHT22;1372;47.956;7.830;2022-10-23T15:22:21;19.40;99.90
2729;DHT22;1372;47.956;7.830;2022-10-23T15:24:59;19.20;99.90
2729;DHT22;1372;47.956;7.830;2022-10-23T15:27:28;19.20;99.90
2729;DHT22;1372;47.956;7.830;2022-10-23T15:29:57;19.20;99.90
2729;DHT22;1372;47.956;7.830;2022-10-23T15:32:25;19.10;99.90
2729;DHT22;1372;47.956;7.830;2022-10-23T15:34:55;19.10;99.90
2729;DHT22;1372;47.956;7.830;2022-10-23T15:37:26;19.00;99.90
2729;DHT22;1372;47.956;7.830;2022-10-23T15:39:56;18.90;99.90
2729;DHT22;1372;47.956;7.830;2022-10-23T15:42:29;18.90;99.90
2729;DHT22;1372;47.956;7.830;2022-10-23T15:44:58;18.80;99.90
2729;DHT22;1372;47.956;7.830;2022-10-23T15:47:31;18.70;99.90
2729;DHT22;1372;47.956;7.830;2022-10-23T15:50:00;18.70;99.90
2729;DHT22;1372;47.956;7.830;2022-10-23T15:52:29;18.70;99.90
2729;DHT22;1372;47.956;7.830;2022-10-23T15:54:57;18.60;99.90
2729;DHT22;1372;47.956;7.830;2022-10-23T15:57:30;18.60;99.90
2729;DHT22;1372;47.956;7.830;2022-10-23T16:00:04;18.40;99.90
2729;DHT22;1372;47.956;7.830;2022-10-23T16:06:08;18.40;99.90
2729;DHT22;1372;47.956;7.830;2022-10-23T16:08:38;18.30;99.90
2729;DHT22;1372;47.956;7.830;2022-10-23T16:11:14;18.20;99.90
2729;DHT22;1372;47.956;7.830;2022-10-23T16:13:45;18.20;99.90
2729;DHT22;1372;47.956;7.830;2022-10-23T16:16:16;18.10;99.90
2729;DHT22;1372;47.956;7.830;2022-10-23T16:18:46;18.10;99.90
2729;DHT22;1372;47.956;7.830;2022-10-23T16:21:19;18.00;99.90
2729;DHT22;1372;47.956;7.830;2022-10-23T16:23:49;18.00;99.90
2729;DHT22;1372;47.956;7.830;2022-10-23T16:26:22;18.00;99.90
2729;DHT22;1372;47.956;7.830;2022-10-23T16:28:53;18.00;99.90
2729;DHT22;1372;47.956;7.830;2022-10-23T16:31:26;18.00;99.90
2729;DHT22;1372;47.956;7.830;2022-10-23T16:33:57;17.90;99.90
2729;DHT22;1372;47.956;7.830;2022-10-23T16:36:32;17.90;99.90
2729;DHT22;1372;47.956;7.830;2022-10-23T16:39:05;17.90;99.90
2729;DHT22;1372;47.956;7.830;2022-10-23T16:41:34;17.90;99.90
2729;DHT22;1372;47.956;7.830;2022-10-23T16:44:09;17.90;99.90
2729;DHT22;1372;47.956;7.830;2022-10-23T16:46:41;18.00;99.90
2729;DHT22;1372;47.956;7.830;2022-10-23T16:49:12;18.00;99.90
2729;DHT22;1372;47.956;7.830;2022-10-23T16:51:41;18.00;99.90